Time;durP1;ratioP1;P1;durP2;ratioP2;P2;SDS_P1;SDS_P2;PMS_P1;PMS_P2;Temp;Humidity;BMP_temperature;BMP_pressure;BME280_temperature;BME280_humidity;BME280_pressure;Samples;Min_cycle;Max_cycle;Signal;HPM_P1;HPM_P2
2023/10/21 00:00:27;;;;;;;31.55;12.57;;;12.10;99.90;;;;;;5050933;28;20083;-61
2023/10/21 00:02:53;;;;;;;22.60;11.13;;;12.10;99.90;;;;;;5050580;28;20064;-63
2023/10/21 00:05:19;;;;;;;20.20;13.98;;;12.10;99.90;;;;;;5050589;28;20388;-62
2023/10/21 00:07:44;;;;;;;22.55;9.90;;;12.40;99.90;;;;;;5050757;28;20041;-60
2023/10/21 00:10:10;;;;;;;22.50;14.40;;;11.80;99.90;;;;;;5032788;28;20075;-61
2023/10/21 00:12:36;;;;;;;21.67;10.52;;;12.40;99.90;;;;;;5049207;28;20041;-63
2023/10/21 00:15:07;;;;;;;22.73;15.20;;;12.10;99.90;;;;;;5050215;28;20080;-61
2023/10/21 00:17:33;;;;;;;20.35;15.00;;;12.40;99.90;;;;;;5050272;28;20040;-62
2023/10/21 00:19:59;;;;;;;22.80;14.48;;;11.80;99.90;;;;;;5049421;28;20362;-62
2023/10/21 00:22:26;;;;;;;24.23;14.65;;;12.20;99.90;;;;;;5050329;28;20040;-61
2023/10/21 00:24:52;;;;;;;17.98;9.55;;;12.20;99.90;;;;;;5050305;28;20037;-62
2023/10/21 00:27:17;;;;;;;20.73;9.30;;;12.30;99.90;;;;;;5050096;28;20051;-61
2023/10/21 00:29:43;;;;;;;20.30;10.05;;;11.70;99.90;;;;;;5050124;28;20414;-60
2023/10/21 00:32:09;;;;;;;19.45;9.93;;;12.30;99.90;;;;;;5050449;28;20033;-60
2023/10/21 00:34:38;;;;;;;21.13;10.00;;;12.20;99.90;;;;;;5050303;28;20088;-61
2023/10/21 00:37:08;;;;;;;20.08;9.80;;;11.70;99.90;;;;;;5050794;28;20558;-60
2023/10/21 00:39:37;;;;;;;19.13;12.75;;;11.90;99.90;;;;;;5050424;28;20431;-62
2023/10/21 00:42:06;;;;;;;19.00;12.73;;;11.80;99.90;;;;;;5049984;28;20087;-61
2023/10/21 00:44:32;;;;;;;19.15;9.02;;;12.00;99.90;;;;;;5050281;28;20447;-60
2023/10/21 00:47:01;;;;;;;21.48;8.75;;;11.60;99.90;;;;;;5050319;28;20463;-61
2023/10/21 00:49:29;;;;;;;18.42;12.60;;;12.20;99.90;;;;;;5050161;28;20045;-60
2023/10/21 00:51:56;;;;;;;17.70;8.95;;;11.80;99.90;;;;;;5050216;28;20399;-61
2023/10/21 00:54:24;;;;;;;19.67;8.88;;;12.10;99.90;;;;;;5050330;28;20045;-60
2023/10/21 00:56:51;;;;;;;21.30;9.68;;;11.90;99.90;;;;;;5050144;28;20075;-61
2023/10/21 00:59:17;;;;;;;21.55;10.55;;;12.00;99.90;;;;;;5032461;28;20053;-59
2023/10/21 01:01:43;;;;;;;23.38;14.35;;;11.50;99.90;;;;;;5049237;28;20049;-59
2023/10/21 01:04:10;;;;;;;19.42;13.68;;;12.00;99.90;;;;;;5049654;28;20033;-62
2023/10/21 01:06:36;;;;;;;18.23;9.25;;;11.60;99.90;;;;;;5052285;28;20029;-62
2023/10/21 01:09:02;;;;;;;22.17;14.82;;;12.00;99.90;;;;;;5036482;28;20468;-63
2023/10/21 01:11:27;;;;;;;17.27;8.85;;;11.40;99.90;;;;;;5054193;28;20105;-62
2023/10/21 01:13:55;;;;;;;18.95;13.60;;;11.40;99.90;;;;;;5035693;28;20063;-62
2023/10/21 01:16:21;;;;;;;19.52;8.98;;;11.60;99.90;;;;;;5053691;28;20040;-61
2023/10/21 01:18:47;;;;;;;22.92;14.70;;;11.90;99.90;;;;;;5035850;28;20119;-62
2023/10/21 01:21:13;;;;;;;21.63;9.40;;;11.90;99.90;;;;;;5035206;28;20033;-60
2023/10/21 01:23:39;;;;;;;21.88;9.52;;;11.90;99.90;;;;;;5053685;28;20033;-62
2023/10/21 01:26:05;;;;;;;21.33;9.45;;;11.80;99.90;;;;;;5053517;28;20546;-62
2023/10/21 01:28:34;;;;;;;20.17;10.38;;;11.80;99.90;;;;;;5053856;28;20124;-61
2023/10/21 01:31:01;;;;;;;17.83;13.75;;;11.80;99.90;;;;;;5053181;28;20037;-60
2023/10/21 01:33:27;;;;;;;19.58;13.90;;;11.40;99.90;;;;;;5053688;28;20112;-62
2023/10/21 01:35:53;;;;;;;20.05;14.43;;;11.50;99.90;;;;;;5035468;28;20041;-61
2023/10/21 01:38:19;;;;;;;18.35;8.60;;;11.80;99.90;;;;;;5053348;28;20379;-61
2023/10/21 01:40:45;;;;;;;15.90;8.40;;;11.50;99.90;;;;;;5053082;28;20552;-61
2023/10/21 01:43:11;;;;;;;18.02;8.93;;;11.80;99.90;;;;;;5052594;28;20224;-60
2023/10/21 01:45:37;;;;;;;19.30;8.63;;;11.20;99.90;;;;;;5053336;28;20125;-59
2023/10/21 01:48:04;;;;;;;19.75;8.88;;;11.80;99.90;;;;;;5053456;28;20033;-61
2023/10/21 01:50:30;;;;;;;16.98;8.82;;;11.70;99.90;;;;;;5053018;28;20041;-60
2023/10/21 01:52:57;;;;;;;18.08;9.35;;;11.30;99.90;;;;;;5053194;28;20037;-60
2023/10/21 01:55:23;;;;;;;14.70;8.65;;;11.20;99.90;;;;;;5053091;28;20044;-60
2023/10/21 01:57:48;;;;;;;21.30;9.32;;;11.70;99.90;;;;;;5052769;28;20545;-59
2023/10/21 02:00:20;;;;;;;19.77;8.63;;;11.20;99.90;;;;;;5052879;28;20657;-59
2023/10/21 02:02:54;;;;;;;19.08;13.80;;;11.70;99.90;;;;;;5052669;28;20051;-60
2023/10/21 02:05:21;;;;;;;21.55;8.95;;;11.30;99.90;;;;;;5052887;28;20068;-60
2023/10/21 02:07:47;;;;;;;22.73;9.43;;;11.70;99.90;;;;;;5052994;28;20037;-60
2023/10/21 02:10:13;;;;;;;20.75;9.88;;;11.70;99.90;;;;;;5034967;28;20048;-59
2023/10/21 02:12:39;;;;;;;20.23;9.43;;;11.30;99.90;;;;;;5052398;28;20040;-61
2023/10/21 02:15:06;;;;;;;22.98;10.10;;;11.70;99.90;;;;;;5052219;28;20086;-59
2023/10/21 02:17:32;;;;;;;21.02;9.98;;;11.20;99.90;;;;;;5051953;28;20045;-58
2023/10/21 02:19:58;;;;;;;24.73;11.25;;;11.10;99.90;;;;;;5052631;28;20473;-60
2023/10/21 02:22:24;;;;;;;27.08;18.17;;;11.20;99.90;;;;;;5052840;28;20237;-58
2023/10/21 02:24:51;;;;;;;27.83;13.18;;;11.70;99.90;;;;;;5052570;28;20149;-60
2023/10/21 02:27:17;;;;;;;25.85;13.35;;;11.20;99.90;;;;;;5052667;28;20036;-61
2023/10/21 02:29:43;;;;;;;31.98;14.10;;;11.40;99.90;;;;;;5052660;28;20405;-61
2023/10/21 02:32:09;;;;;;;30.70;21.35;;;11.70;99.90;;;;;;5051645;28;20044;-60
2023/10/21 02:34:34;;;;;;;29.15;13.93;;;11.30;99.90;;;;;;5052365;28;20037;-60
2023/10/21 02:37:00;;;;;;;37.47;23.45;;;11.10;99.90;;;;;;5033855;28;20029;-59
2023/10/21 02:39:26;;;;;;;35.63;23.55;;;11.70;99.90;;;;;;5052337;28;20116;-61
2023/10/21 02:41:51;;;;;;;32.50;14.70;;;11.30;99.90;;;;;;5051620;28;20059;-60
2023/10/21 02:44:17;;;;;;;33.53;24.15;;;11.10;99.90;;;;;;5052321;28;20063;-58
2023/10/21 02:46:43;;;;;;;33.25;24.88;;;11.60;99.90;;;;;;5052177;28;20086;-61
2023/10/21 02:49:08;;;;;;;34.53;15.15;;;11.10;99.90;;;;;;5052268;28;20033;-59
2023/10/21 02:51:34;;;;;;;34.67;16.08;;;11.40;99.90;;;;;;5049881;28;20037;-60
2023/10/21 02:54:00;;;;;;;35.38;16.17;;;11.50;99.90;;;;;;5049226;28;20428;-60
2023/10/21 02:56:25;;;;;;;36.05;15.70;;;11.20;99.90;;;;;;5016619;28;20049;-58
2023/10/21 02:58:51;;;;;;;34.50;17.15;;;11.20;99.90;;;;;;5051720;28;20389;-61
2023/10/21 03:01:19;;;;;;;38.75;17.92;;;11.20;99.90;;;;;;5051167;28;20037;-60
2023/10/21 03:03:47;;;;;;;39.55;18.83;;;11.50;99.90;;;;;;5051919;28;20067;-59
2023/10/21 03:06:15;;;;;;;40.10;28.50;;;11.60;99.90;;;;;;5052094;28;20033;-60
2023/10/21 03:08:41;;;;;;;43.35;18.33;;;11.60;99.90;;;;;;5033133;28;20049;-58
2023/10/21 03:11:07;;;;;;;40.75;19.33;;;11.20;99.90;;;;;;5033747;28;20040;-58
2023/10/21 03:13:35;;;;;;;43.13;29.15;;;11.60;99.90;;;;;;5051654;28;20118;-59
2023/10/21 03:16:08;;;;;;;41.08;18.55;;;11.60;99.90;;;;;;5051503;28;20045;-58
2023/10/21 03:18:35;;;;;;;34.73;18.30;;;11.30;99.90;;;;;;5051361;28;20037;-60
2023/10/21 03:21:01;;;;;;;43.75;19.73;;;11.30;99.90;;;;;;5051312;28;20120;-60
2023/10/21 03:23:28;;;;;;;39.70;19.77;;;11.00;99.90;;;;;;5051491;28;20041;-60
2023/10/21 03:25:57;;;;;;;46.45;20.42;;;11.50;99.90;;;;;;5049967;28;20404;-60
2023/10/21 03:28:24;;;;;;;50.03;32.72;;;11.10;99.90;;;;;;5050699;28;20044;-58
2023/10/21 03:30:50;;;;;;;41.63;18.88;;;10.90;99.90;;;;;;5050364;28;20045;-58
2023/10/21 03:33:16;;;;;;;49.03;20.17;;;11.20;99.90;;;;;;5051124;28;20123;-59
2023/10/21 03:35:55;;;;;;;36.00;18.77;;;11.40;99.90;;;;;;5051280;28;20468;-58
2023/10/21 03:38:21;;;;;;;44.33;19.02;;;11.50;99.90;;;;;;5051304;28;20033;-56
2023/10/21 03:41:07;;;;;;;47.15;31.55;;;10.90;99.90;;;;;;5051146;28;20041;-58
2023/10/21 03:43:34;;;;;;;45.85;20.25;;;11.50;99.90;;;;;;5051387;28;20045;-55
2023/10/21 03:46:05;;;;;;;48.22;32.17;;;11.40;99.90;;;;;;5050776;28;20121;-56
2023/10/21 03:48:31;;;;;;;41.80;30.08;;;10.90;99.90;;;;;;5050737;28;20041;-56
2023/10/21 03:51:11;;;;;;;40.78;19.30;;;11.50;99.90;;;;;;5050466;28;20037;-57
2023/10/21 03:53:38;;;;;;;41.60;19.55;;;11.20;99.90;;;;;;5051169;28;20036;-55
2023/10/21 03:56:04;;;;;;;51.78;22.50;;;11.10;99.90;;;;;;5051039;28;20074;-56
2023/10/21 03:58:30;;;;;;;51.92;33.60;;;11.00;99.90;;;;;;5050726;28;20484;-57
2023/10/21 04:00:57;;;;;;;52.33;21.27;;;11.10;99.90;;;;;;5049499;28;20049;-56
2023/10/21 04:03:26;;;;;;;51.60;34.35;;;10.90;99.90;;;;;;5050606;28;20073;-56
2023/10/21 04:05:56;;;;;;;44.15;21.15;;;11.50;99.90;;;;;;5050515;28;20051;-54
2023/10/21 04:08:23;;;;;;;48.15;20.95;;;11.50;99.90;;;;;;5032477;28;20400;-55
2023/10/21 04:10:48;;;;;;;56.30;23.70;;;10.90;99.90;;;;;;5050954;28;20591;-57
2023/10/21 04:13:14;;;;;;;52.05;24.10;;;11.50;99.90;;;;;;5050688;28;20037;-56
2023/10/21 04:15:40;;;;;;;52.90;23.80;;;11.10;99.90;;;;;;5050122;28;20040;-56
2023/10/21 04:18:06;;;;;;;52.88;24.70;;;11.00;99.90;;;;;;5050652;28;20039;-56
2023/10/21 04:20:32;;;;;;;47.42;23.38;;;11.00;99.90;;;;;;5032403;28;20477;-56
2023/10/21 04:22:58;;;;;;;54.33;37.50;;;10.90;99.90;;;;;;5050553;28;20037;-57
2023/10/21 04:25:25;;;;;;;56.80;24.42;;;11.20;99.90;;;;;;5050360;28;20646;-55
2023/10/21 04:27:50;;;;;;;60.13;40.75;;;11.00;99.90;;;;;;5050560;28;20072;-57
2023/10/21 04:30:16;;;;;;;61.22;24.50;;;11.00;99.90;;;;;;5050671;28;20519;-57
2023/10/21 04:32:42;;;;;;;60.78;40.58;;;10.90;99.90;;;;;;5049745;28;20443;-55
2023/10/21 04:35:08;;;;;;;62.47;41.60;;;11.40;99.90;;;;;;5050256;28;20060;-57
2023/10/21 04:37:35;;;;;;;50.58;23.80;;;11.50;99.90;;;;;;5048633;28;20136;-58
2023/10/21 04:40:01;;;;;;;52.60;22.77;;;11.20;99.90;;;;;;5031936;28;20047;-56
2023/10/21 04:42:26;;;;;;;63.05;41.25;;;11.00;99.90;;;;;;5054194;28;20057;-56
2023/10/21 04:44:52;;;;;;;58.00;24.13;;;11.40;99.90;;;;;;5054599;28;20033;-56
2023/10/21 04:47:18;;;;;;;52.15;23.98;;;11.50;99.90;;;;;;5036565;28;20047;-57
2023/10/21 04:49:44;;;;;;;52.10;24.38;;;11.30;99.90;;;;;;5054347;28;20037;-57
2023/10/21 04:52:14;;;;;;;51.75;24.10;;;11.40;99.90;;;;;;5054406;28;20499;-57
2023/10/21 04:54:41;;;;;;;60.80;25.75;;;11.50;99.90;;;;;;5036398;28;20045;-57
2023/10/21 04:57:07;;;;;;;59.28;39.35;;;11.10;99.90;;;;;;5053996;28;20498;-57
2023/10/21 04:59:33;;;;;;;52.38;23.80;;;11.00;99.90;;;;;;5053952;28;20033;-57
2023/10/21 05:01:59;;;;;;;56.92;23.20;;;11.40;99.90;;;;;;5053487;28;20064;-56
2023/10/21 05:04:25;;;;;;;58.88;23.05;;;11.20;99.90;;;;;;5053447;28;20040;-56
2023/10/21 05:06:50;;;;;;;50.15;22.02;;;11.00;99.90;;;;;;5053362;28;20527;-58
2023/10/21 05:09:17;;;;;;;49.03;22.88;;;11.40;99.90;;;;;;5052730;28;20116;-57
2023/10/21 05:11:43;;;;;;;50.72;22.95;;;11.50;99.90;;;;;;5053986;28;20458;-56
2023/10/21 05:14:08;;;;;;;52.55;23.08;;;10.90;99.90;;;;;;5053386;28;20041;-58
2023/10/21 05:16:34;;;;;;;47.28;33.70;;;11.50;99.90;;;;;;5053887;28;20049;-55
2023/10/21 05:19:00;;;;;;;57.65;22.23;;;11.00;99.90;;;;;;5053557;28;20397;-55
2023/10/21 05:21:25;;;;;;;46.63;21.45;;;10.90;99.90;;;;;;5053642;28;20373;-56
2023/10/21 05:23:53;;;;;;;50.10;21.42;;;10.90;99.90;;;;;;5053971;28;20070;-57
2023/10/21 05:26:19;;;;;;;49.88;21.77;;;11.40;99.90;;;;;;5053304;28;20086;-58
2023/10/21 05:28:45;;;;;;;46.20;21.52;;;11.10;99.90;;;;;;5053346;28;20044;-56
2023/10/21 05:31:11;;;;;;;51.08;22.52;;;11.10;99.90;;;;;;5052852;28;20037;-56
2023/10/21 05:33:36;;;;;;;49.78;20.52;;;11.50;99.90;;;;;;5053538;28;20079;-55
2023/10/21 05:36:03;;;;;;;49.10;21.48;;;11.30;99.90;;;;;;5053618;28;20036;-57
2023/10/21 05:38:28;;;;;;;43.42;19.83;;;11.50;99.90;;;;;;5053377;28;20546;-57
2023/10/21 05:40:57;;;;;;;41.53;30.20;;;11.50;99.90;;;;;;5053302;28;20041;-56
2023/10/21 05:43:23;;;;;;;45.13;20.52;;;11.60;99.90;;;;;;5053106;28;20053;-56
2023/10/21 05:45:48;;;;;;;42.95;19.98;;;11.50;99.90;;;;;;5053050;28;20481;-58
2023/10/21 05:48:14;;;;;;;44.08;30.35;;;11.10;99.90;;;;;;5052494;28;20044;-58
2023/10/21 05:50:40;;;;;;;41.75;28.25;;;11.60;99.90;;;;;;5050903;28;20040;-57
2023/10/21 05:53:05;;;;;;;41.30;29.73;;;11.50;99.90;;;;;;5051464;28;20083;-56
2023/10/21 05:55:31;;;;;;;36.15;17.77;;;11.10;99.90;;;;;;5034597;28;20044;-56
2023/10/21 05:57:57;;;;;;;40.88;18.73;;;11.60;99.90;;;;;;5052864;28;20037;-57
2023/10/21 06:00:23;;;;;;;36.58;18.83;;;11.50;99.90;;;;;;5052442;28;20041;-57
2023/10/21 06:02:49;;;;;;;39.03;18.27;;;11.30;99.90;;;;;;5051958;28;20538;-55
2023/10/21 06:05:15;;;;;;;41.05;29.15;;;11.30;99.90;;;;;;5051821;28;20048;-57
2023/10/21 06:07:42;;;;;;;35.45;26.65;;;11.20;99.90;;;;;;5052464;28;20044;-56
2023/10/21 06:10:08;;;;;;;35.53;26.90;;;11.80;99.90;;;;;;5052772;28;20078;-55
2023/10/21 06:12:35;;;;;;;37.17;17.73;;;11.70;99.90;;;;;;5052504;28;20033;-57
2023/10/21 06:15:00;;;;;;;34.72;26.60;;;11.40;99.90;;;;;;5034705;28;20037;-56
2023/10/21 06:17:26;;;;;;;43.15;17.65;;;11.90;99.90;;;;;;5052824;28;20751;-56
2023/10/21 06:19:52;;;;;;;39.83;18.30;;;11.30;99.90;;;;;;5052509;28;20393;-57
2023/10/21 06:22:19;;;;;;;34.40;17.95;;;11.90;99.90;;;;;;5052177;28;20052;-56
2023/10/21 06:24:48;;;;;;;37.00;18.27;;;11.90;99.90;;;;;;5052454;28;20175;-57
2023/10/21 06:27:13;;;;;;;38.25;18.98;;;11.40;99.90;;;;;;5049329;28;20468;-57
2023/10/21 06:29:39;;;;;;;41.58;19.67;;;11.50;99.90;;;;;;5049841;28;20040;-57
2023/10/21 06:32:06;;;;;;;36.92;19.60;;;11.80;99.90;;;;;;5049688;28;20045;-57
2023/10/21 06:34:33;;;;;;;37.95;18.42;;;11.70;99.90;;;;;;5051579;28;20113;-57
2023/10/21 06:36:59;;;;;;;41.47;18.60;;;11.70;99.90;;;;;;5051250;28;20044;-57
2023/10/21 06:39:25;;;;;;;38.25;18.02;;;11.50;99.90;;;;;;5034192;28;20060;-56
2023/10/21 06:41:51;;;;;;;33.97;18.20;;;12.10;99.90;;;;;;5042954;28;20079;-57
2023/10/21 06:44:17;;;;;;;32.90;18.65;;;12.00;99.90;;;;;;5041930;28;20355;-56
2023/10/21 06:46:43;;;;;;;37.53;18.33;;;11.90;99.90;;;;;;5025449;28;20033;-56
2023/10/21 06:49:09;;;;;;;37.13;18.15;;;11.70;99.90;;;;;;5044377;28;20170;-56
2023/10/21 06:51:38;;;;;;;37.08;17.73;;;11.50;99.90;;;;;;5043313;28;20128;-57
2023/10/21 06:54:07;;;;;;;39.13;17.40;;;11.60;99.90;;;;;;5044067;28;21027;-58
2023/10/21 06:56:33;;;;;;;32.72;25.65;;;11.60;99.90;;;;;;5044163;28;20124;-56
2023/10/21 06:58:59;;;;;;;32.72;24.60;;;12.20;99.90;;;;;;5043801;28;20540;-56
2023/10/21 07:01:25;;;;;;;32.58;23.88;;;12.30;99.90;;;;;;5040832;28;20486;-55
2023/10/21 07:03:51;;;;;;;34.72;14.98;;;12.30;99.90;;;;;;5037433;28;20155;-57
2023/10/21 07:06:17;;;;;;;34.20;23.80;;;12.10;99.90;;;;;;5041851;28;20175;-57
2023/10/21 07:08:43;;;;;;;37.13;16.58;;;12.30;99.90;;;;;;5040494;28;20483;-56
2023/10/21 07:11:08;;;;;;;31.67;16.65;;;12.10;99.90;;;;;;5040988;28;20095;-55
2023/10/21 07:13:34;;;;;;;36.55;17.15;;;11.90;99.90;;;;;;5041510;28;20033;-57
2023/10/21 07:16:10;;;;;;;36.78;16.05;;;12.40;99.90;;;;;;5043043;28;20366;-56
2023/10/21 07:18:39;;;;;;;29.92;15.55;;;12.40;99.90;;;;;;5043129;28;20029;-55
2023/10/21 07:21:05;;;;;;;33.15;16.20;;;12.10;99.90;;;;;;5043575;28;20112;-57
2023/10/21 07:23:31;;;;;;;26.08;20.65;;;12.10;99.90;;;;;;5043654;28;20028;-58
2023/10/21 07:25:57;;;;;;;24.50;20.65;;;12.20;99.90;;;;;;5042017;28;20429;-56
2023/10/21 07:28:23;;;;;;;28.15;20.60;;;11.80;99.90;;;;;;5041999;28;20068;-56
2023/10/21 07:30:48;;;;;;;25.65;21.10;;;12.50;99.90;;;;;;5042923;28;20060;-56
2023/10/21 07:33:14;;;;;;;27.65;12.90;;;12.50;99.90;;;;;;5026135;28;22596;-56
2023/10/21 07:35:40;;;;;;;29.45;21.48;;;12.40;99.90;;;;;;5042568;28;20508;-56
2023/10/21 07:38:06;;;;;;;26.35;20.35;;;12.50;99.90;;;;;;5042975;28;20059;-56
2023/10/21 07:40:31;;;;;;;26.60;19.48;;;11.90;99.90;;;;;;5043244;28;20392;-56
2023/10/21 07:42:58;;;;;;;26.52;14.18;;;12.50;99.90;;;;;;5042529;28;20057;-54
2023/10/21 07:45:25;;;;;;;28.45;14.50;;;12.20;99.90;;;;;;5042865;28;20444;-56
2023/10/21 07:47:52;;;;;;;28.42;15.55;;;12.00;99.90;;;;;;5042953;28;20052;-57
2023/10/21 07:50:17;;;;;;;33.13;16.35;;;12.10;99.90;;;;;;5042181;28;20142;-55
2023/10/21 07:52:43;;;;;;;35.10;15.23;;;12.50;99.90;;;;;;5024812;28;20123;-56
2023/10/21 07:55:12;;;;;;;30.83;15.98;;;12.10;99.90;;;;;;5043632;28;20037;-57
2023/10/21 07:57:41;;;;;;;23.85;18.90;;;12.60;99.90;;;;;;5041987;28;20072;-56
2023/10/21 08:00:08;;;;;;;23.65;17.80;;;12.80;99.90;;;;;;5041725;28;20040;-55
2023/10/21 08:02:34;;;;;;;22.95;18.65;;;12.40;99.90;;;;;;5038776;28;20037;-56
2023/10/21 08:05:01;;;;;;;25.73;17.17;;;12.90;99.90;;;;;;5042286;28;20533;-58
2023/10/21 08:07:27;;;;;;;22.17;16.30;;;13.00;99.90;;;;;;5033205;28;20040;-57
2023/10/21 08:09:52;;;;;;;24.90;12.73;;;12.90;99.90;;;;;;5024603;28;20040;-57
2023/10/21 08:12:18;;;;;;;22.73;17.23;;;12.90;99.90;;;;;;5041086;28;20033;-57
2023/10/21 08:14:44;;;;;;;23.92;12.68;;;12.70;99.90;;;;;;5042159;28;20166;-56
2023/10/21 08:17:10;;;;;;;23.25;11.95;;;12.80;99.90;;;;;;5023286;28;20045;-56
2023/10/21 08:19:36;;;;;;;25.80;13.30;;;12.80;99.90;;;;;;5040331;28;20047;-57
2023/10/21 08:22:03;;;;;;;27.27;13.20;;;12.70;99.90;;;;;;5040867;28;20071;-58
2023/10/21 08:24:28;;;;;;;30.10;12.10;;;12.80;99.90;;;;;;5041332;28;20077;-58
2023/10/21 08:26:54;;;;;;;18.52;12.48;;;13.10;99.90;;;;;;5042012;28;20036;-57
2023/10/21 08:29:20;;;;;;;21.67;13.05;;;13.00;99.90;;;;;;5042417;28;20033;-56
2023/10/21 08:31:47;;;;;;;17.98;13.98;;;13.10;99.90;;;;;;5040602;28;20041;-59
2023/10/21 08:34:13;;;;;;;15.65;13.95;;;13.80;99.90;;;;;;5041214;28;20029;-56
2023/10/21 08:36:40;;;;;;;19.40;14.48;;;13.90;99.90;;;;;;5025007;28;20055;-58
2023/10/21 08:39:07;;;;;;;19.92;10.43;;;13.20;99.90;;;;;;5042711;28;20112;-56
2023/10/21 08:41:39;;;;;;;19.50;11.15;;;13.50;99.90;;;;;;5041562;28;20076;-57
2023/10/21 08:44:06;;;;;;;17.20;10.02;;;13.60;99.90;;;;;;5036375;28;20041;-56
2023/10/21 08:46:33;;;;;;;16.90;11.32;;;14.10;99.90;;;;;;5040411;28;20476;-56
2023/10/21 08:49:03;;;;;;;14.60;8.63;;;14.10;99.90;;;;;;5023869;28;20073;-56
2023/10/21 08:51:30;;;;;;;17.55;9.50;;;13.90;99.90;;;;;;5040889;28;20041;-58
2023/10/21 08:54:03;;;;;;;13.95;9.88;;;13.60;99.90;;;;;;5015043;28;20032;-57
2023/10/21 08:56:37;;;;;;;14.73;7.93;;;14.00;99.90;;;;;;5041637;28;20067;-56
2023/10/21 08:59:03;;;;;;;14.00;8.90;;;13.80;99.90;;;;;;5041510;28;20872;-57
2023/10/21 09:01:29;;;;;;;15.07;8.77;;;14.30;99.90;;;;;;5040336;28;20040;-58
2023/10/21 09:03:56;;;;;;;12.20;6.70;;;13.80;99.90;;;;;;5026730;28;20489;-56
2023/10/21 09:06:22;;;;;;;15.00;6.80;;;14.40;99.90;;;;;;5041200;28;20060;-56
2023/10/21 09:08:48;;;;;;;13.57;7.63;;;14.10;99.90;;;;;;5039743;28;20118;-58
2023/10/21 09:11:20;;;;;;;11.27;6.75;;;13.90;99.90;;;;;;5041900;28;20118;-57
2023/10/21 09:13:47;;;;;;;12.93;6.80;;;13.70;99.90;;;;;;5024129;28;20373;-57
2023/10/21 09:16:23;;;;;;;13.52;6.78;;;14.20;99.90;;;;;;5025279;28;20102;-58
2023/10/21 09:19:01;;;;;;;14.88;7.68;;;14.40;99.90;;;;;;5041978;28;20036;-58
2023/10/21 09:21:38;;;;;;;13.43;7.03;;;14.30;99.90;;;;;;5025749;28;20040;-57
2023/10/21 09:24:06;;;;;;;13.30;6.30;;;13.90;99.90;;;;;;5040593;28;20499;-58
2023/10/21 09:26:43;;;;;;;11.18;7.28;;;14.30;99.90;;;;;;5040629;28;20451;-56
2023/10/21 09:29:13;;;;;;;14.77;6.95;;;14.40;99.90;;;;;;5043493;28;20075;-57
2023/10/21 09:31:44;;;;;;;12.00;6.47;;;13.60;99.90;;;;;;5043766;28;20033;-57
2023/10/21 09:34:30;;;;;;;13.02;6.30;;;14.20;99.90;;;;;;5043690;28;20036;-58
2023/10/21 09:36:58;;;;;;;10.32;5.25;;;14.40;99.90;;;;;;5044717;28;20040;-57
2023/10/21 09:39:26;;;;;;;10.02;5.95;;;14.00;99.90;;;;;;5045067;28;20040;-57
2023/10/21 09:41:52;;;;;;;10.25;5.63;;;14.20;99.90;;;;;;5042151;28;21057;-56
2023/10/21 09:44:18;;;;;;;10.48;6.00;;;14.30;99.90;;;;;;5043631;28;20049;-56
2023/10/21 09:46:45;;;;;;;11.05;6.80;;;13.60;99.90;;;;;;5044092;28;20151;-57
2023/10/21 09:49:15;;;;;;;9.07;5.20;;;14.20;99.90;;;;;;5040061;28;20036;-57
2023/10/21 09:52:06;;;;;;;10.73;7.40;;;13.80;99.90;;;;;;5042045;28;20037;-58
2023/10/21 09:54:46;;;;;;;6.88;4.22;;;13.80;99.90;;;;;;5041731;28;20037;-57
2023/10/21 09:57:13;;;;;;;9.20;5.68;;;14.10;99.90;;;;;;5037983;28;20033;-59
2023/10/21 09:59:44;;;;;;;8.13;3.70;;;14.00;99.90;;;;;;5040735;28;20051;-56
2023/10/21 10:02:11;;;;;;;5.93;2.20;;;14.30;99.90;;;;;;5041554;28;20029;-57
2023/10/21 10:04:38;;;;;;;3.63;1.90;;;13.50;99.90;;;;;;5024925;28;20048;-58
2023/10/21 10:07:08;;;;;;;4.20;1.73;;;14.20;99.90;;;;;;5024040;28;20480;-58
2023/10/21 10:09:40;;;;;;;8.88;1.70;;;14.20;99.90;;;;;;5042123;28;20033;-57
2023/10/21 10:12:17;;;;;;;3.67;1.60;;;13.70;99.90;;;;;;5019209;28;20045;-57
2023/10/21 10:14:43;;;;;;;3.78;1.70;;;14.00;99.90;;;;;;5023481;28;20037;-57
2023/10/21 10:17:09;;;;;;;3.92;1.85;;;13.80;99.90;;;;;;5043288;28;20404;-57
2023/10/21 10:19:42;;;;;;;3.53;1.48;;;14.50;99.90;;;;;;5043111;28;20037;-55
2023/10/21 10:22:27;;;;;;;5.03;1.50;;;14.00;99.90;;;;;;5042340;28;20037;-57
2023/10/21 10:25:10;;;;;;;4.60;1.30;;;14.50;99.90;;;;;;5042874;28;20523;-56
2023/10/21 10:27:42;;;;;;;3.83;1.20;;;14.70;99.90;;;;;;5027732;28;20104;-57
2023/10/21 10:30:30;;;;;;;4.82;1.00;;;14.70;99.90;;;;;;5039001;28;20029;-57
2023/10/21 10:32:57;;;;;;;3.17;1.10;;;14.20;99.90;;;;;;5039921;28;20098;-57
2023/10/21 10:35:41;;;;;;;3.20;1.40;;;14.10;99.90;;;;;;5021625;28;20041;-56
2023/10/21 10:38:26;;;;;;;4.40;1.30;;;14.20;99.90;;;;;;5040403;28;20044;-55
2023/10/21 10:41:01;;;;;;;3.45;1.10;;;14.20;99.90;;;;;;5040030;28;20124;-56
2023/10/21 10:43:28;;;;;;;2.90;1.13;;;14.40;99.90;;;;;;5040225;28;20277;-57
2023/10/21 10:45:55;;;;;;;2.20;1.02;;;14.50;99.90;;;;;;5041574;28;20056;-57
2023/10/21 10:48:21;;;;;;;3.00;1.10;;;14.20;99.90;;;;;;5040876;28;20036;-57
2023/10/21 10:50:47;;;;;;;1.80;0.90;;;14.40;99.90;;;;;;5039230;28;20119;-56
2023/10/21 10:53:14;;;;;;;3.88;1.15;;;14.30;99.90;;;;;;5039061;28;20037;-55
2023/10/21 10:55:59;;;;;;;4.63;1.08;;;14.10;99.90;;;;;;5039714;28;20513;-57
2023/10/21 10:58:26;;;;;;;3.47;1.00;;;14.30;99.90;;;;;;5031351;28;20094;-57
2023/10/21 11:00:52;;;;;;;2.65;0.77;;;14.10;99.90;;;;;;5037290;28;20041;-57
2023/10/21 11:03:28;;;;;;;5.75;1.08;;;13.90;99.90;;;;;;5038668;28;20131;-56
2023/10/21 11:05:56;;;;;;;3.22;0.95;;;14.10;99.90;;;;;;5037547;28;20039;-56
2023/10/21 11:08:23;;;;;;;2.30;0.85;;;14.00;99.90;;;;;;5023113;28;20040;-56
2023/10/21 11:10:48;;;;;;;3.50;1.02;;;14.00;99.90;;;;;;5039732;28;20064;-56
2023/10/21 11:13:14;;;;;;;4.78;0.90;;;14.20;99.90;;;;;;5040082;28;20037;-57
2023/10/21 11:15:44;;;;;;;3.70;0.68;;;14.20;99.90;;;;;;5039431;28;20120;-57
2023/10/21 11:18:11;;;;;;;1.85;0.70;;;14.00;99.90;;;;;;5039340;28;20477;-56
2023/10/21 11:20:47;;;;;;;4.20;0.80;;;14.20;99.90;;;;;;5039012;28;20033;-57
2023/10/21 11:23:13;;;;;;;4.72;0.70;;;14.00;99.90;;;;;;5038610;28;20071;-57
2023/10/21 11:25:41;;;;;;;3.05;0.80;;;14.20;99.90;;;;;;5035879;28;20029;-57
2023/10/21 11:28:07;;;;;;;3.63;0.65;;;14.40;99.90;;;;;;5023169;28;20045;-57
2023/10/21 11:30:34;;;;;;;6.32;0.80;;;14.40;99.90;;;;;;5038933;28;20048;-55
2023/10/21 11:33:09;;;;;;;3.35;0.60;;;14.30;99.90;;;;;;5038698;28;20033;-57
2023/10/21 11:35:45;;;;;;;2.60;0.82;;;14.50;99.90;;;;;;5039074;28;20068;-56
2023/10/21 11:38:18;;;;;;;4.50;0.70;;;14.50;99.90;;;;;;5036867;28;20099;-57
2023/10/21 11:40:45;;;;;;;3.05;0.60;;;14.60;99.90;;;;;;5018752;28;20393;-55
2023/10/21 11:43:13;;;;;;;1.25;0.50;;;14.80;99.90;;;;;;5036278;28;20060;-57
2023/10/21 11:45:39;;;;;;;2.50;0.80;;;14.90;99.90;;;;;;5045793;28;20041;-56
2023/10/21 11:48:09;;;;;;;3.40;0.50;;;15.10;99.90;;;;;;5048172;28;20037;-58
2023/10/21 11:50:39;;;;;;;2.28;0.70;;;15.40;99.90;;;;;;5048211;28;20049;-57
2023/10/21 11:53:06;;;;;;;3.45;0.50;;;15.60;99.90;;;;;;5049220;28;20409;-57
2023/10/21 12:30:18;;;;;;;4.68;0.70;;;16.20;99.90;;;;;;5049766;28;20048;-55
2023/10/21 12:32:51;;;;;;;4.18;0.80;;;16.00;99.90;;;;;;5048789;28;20049;-58
2023/10/21 12:40:33;;;;;;;;;;;15.70;99.90;;;;;;5050670;28;21295;-58
2023/10/21 12:45:49;;;;;;;3.90;0.88;;;15.50;99.90;;;;;;5050606;28;20044;-55
2023/10/21 12:48:17;;;;;;;;;;;15.60;99.90;;;;;;5050118;28;20048;-57
2023/10/21 12:50:50;;;;;;;5.55;0.80;;;15.90;99.90;;;;;;5050247;28;19970;-55
2023/10/21 12:53:17;;;;;;;4.50;0.95;;;16.00;99.90;;;;;;5050221;28;20108;-57
2023/10/21 12:55:43;;;;;;;3.70;0.90;;;16.10;99.90;;;;;;5050664;28;20045;-56
2023/10/21 12:58:10;;;;;;;5.65;1.00;;;15.90;99.90;;;;;;5050024;28;20088;-56
2023/10/21 13:00:36;;;;;;;4.05;0.80;;;15.90;99.90;;;;;;5050383;28;20488;-55
2023/10/21 13:03:10;;;;;;;4.80;1.00;;;15.90;99.90;;;;;;5053024;28;20029;-56
2023/10/21 13:05:39;;;;;;;6.90;0.82;;;16.00;99.90;;;;;;5037608;28;20041;-58
2023/10/21 13:08:09;;;;;;;3.60;0.65;;;16.00;99.90;;;;;;5054272;28;20127;-55
2023/10/21 13:10:35;;;;;;;5.20;1.13;;;16.00;99.90;;;;;;5054139;28;20049;-58
2023/10/21 13:13:02;;;;;;;4.57;0.85;;;15.90;99.90;;;;;;5047452;28;20098;-57
2023/10/21 13:15:29;;;;;;;4.38;0.90;;;15.90;99.90;;;;;;5048732;28;20053;-58
2023/10/21 13:17:55;;;;;;;5.63;0.93;;;16.10;99.90;;;;;;5051849;28;20559;-57